Time;durP1;ratioP1;P1;durP2;ratioP2;P2;SDS_P1;SDS_P2;PMS_P1;PMS_P2;Temp;Humidity;BMP_temperature;BMP_pressure;BME280_temperature;BME280_humidity;BME280_pressure;Samples;Min_cycle;Max_cycle;Signal;HPM_P1;HPM_P2
2021/12/03 00:02:25;;;;;;;6.27;1.27;;;1.30;99.90;;;;;;5022527;28;20057;-33
2021/12/03 00:04:51;;;;;;;11.77;1.50;;;1.40;99.90;;;;;;5031648;28;20125;-33
2021/12/03 00:07:16;;;;;;;4.90;1.00;;;1.30;99.90;;;;;;4998892;28;20520;-37
2021/12/03 00:09:42;;;;;;;5.87;1.30;;;1.30;99.90;;;;;;5014247;28;20045;-34
2021/12/03 00:12:08;;;;;;;7.13;1.00;;;1.30;99.90;;;;;;5013584;28;20081;-36
2021/12/03 00:14:34;;;;;;;4.63;1.00;;;1.30;99.90;;;;;;5016479;28;20041;-34
2021/12/03 00:17:01;;;;;;;6.27;0.90;;;1.40;99.90;;;;;;5004332;28;20054;-36
2021/12/03 00:19:27;;;;;;;6.40;1.00;;;1.40;99.90;;;;;;5016527;28;20057;-36
2021/12/03 00:21:53;;;;;;;7.73;1.13;;;1.40;99.90;;;;;;5015898;28;20140;-36
2021/12/03 00:24:18;;;;;;;4.47;0.90;;;1.40;99.90;;;;;;5016000;28;20053;-36
2021/12/03 00:26:44;;;;;;;6.23;0.97;;;1.40;99.90;;;;;;5004346;28;20191;-36
2021/12/03 00:29:10;;;;;;;5.30;0.67;;;1.40;99.90;;;;;;5014875;28;20046;-36
2021/12/03 00:31:36;;;;;;;6.33;1.00;;;1.40;99.90;;;;;;5022861;28;20123;-37
2021/12/03 00:34:02;;;;;;;4.63;0.80;;;1.40;99.90;;;;;;5015433;28;20066;-36
2021/12/03 00:36:28;;;;;;;4.70;1.20;;;1.30;99.90;;;;;;5005225;28;20571;-35
2021/12/03 00:38:58;;;;;;;3.43;1.13;;;1.30;99.90;;;;;;5015526;28;20081;-35
2021/12/03 00:41:25;;;;;;;7.50;1.57;;;1.30;99.90;;;;;;5016857;28;20076;-35
2021/12/03 00:43:53;;;;;;;6.33;1.20;;;1.30;99.90;;;;;;5018010;28;20046;-36
2021/12/03 00:46:21;;;;;;;3.63;1.40;;;1.30;99.90;;;;;;5006794;28;20045;-36
2021/12/03 00:48:49;;;;;;;5.00;1.50;;;1.30;99.90;;;;;;5022472;28;20046;-36
2021/12/03 00:51:18;;;;;;;4.97;1.10;;;1.30;99.90;;;;;;5020549;28;20120;-36
2021/12/03 00:53:44;;;;;;;4.10;0.93;;;1.40;99.90;;;;;;5021600;28;20459;-36
2021/12/03 00:56:10;;;;;;;6.93;1.50;;;1.30;99.90;;;;;;5012753;28;20053;-36
2021/12/03 00:58:37;;;;;;;6.40;1.13;;;1.30;99.90;;;;;;5017855;28;20045;-36
2021/12/03 01:01:05;;;;;;;6.57;1.50;;;1.20;99.90;;;;;;5021826;28;20053;-36
2021/12/03 01:03:31;;;;;;;4.20;1.50;;;1.20;99.90;;;;;;5019499;28;20045;-35
2021/12/03 01:05:57;;;;;;;7.23;1.53;;;1.20;99.90;;;;;;5021131;28;20052;-37
2021/12/03 01:08:22;;;;;;;7.93;1.83;;;1.20;99.90;;;;;;5009324;28;20038;-35
2021/12/03 01:10:48;;;;;;;6.67;1.57;;;1.10;99.90;;;;;;5019874;28;20046;-36
2021/12/03 01:13:14;;;;;;;8.13;1.77;;;1.10;99.90;;;;;;5017989;28;20187;-37
2021/12/03 01:15:41;;;;;;;7.47;1.67;;;1.20;99.90;;;;;;5017238;28;20050;-35
2021/12/03 01:18:09;;;;;;;6.97;2.23;;;1.10;99.90;;;;;;5008812;28;20051;-36
2021/12/03 01:20:36;;;;;;;6.23;1.70;;;1.10;99.90;;;;;;5021939;28;20057;-37
2021/12/03 01:23:03;;;;;;;6.80;1.83;;;1.00;99.90;;;;;;5017775;28;20164;-36
2021/12/03 01:25:31;;;;;;;8.20;1.50;;;1.00;99.90;;;;;;5018649;28;20550;-36
2021/12/03 01:27:59;;;;;;;5.87;1.53;;;1.00;99.90;;;;;;5010230;28;20130;-35
2021/12/03 01:30:25;;;;;;;4.77;1.67;;;1.00;99.90;;;;;;5022060;28;20042;-35
2021/12/03 01:32:51;;;;;;;8.30;1.63;;;1.00;99.90;;;;;;5019326;28;20041;-35
2021/12/03 01:35:18;;;;;;;3.83;1.20;;;1.00;99.90;;;;;;5020341;28;20511;-36
2021/12/03 01:37:45;;;;;;;9.17;1.43;;;1.00;99.90;;;;;;5008385;28;20045;-37
2021/12/03 01:40:15;;;;;;;5.00;1.27;;;1.00;99.90;;;;;;5019871;28;20048;-36
2021/12/03 01:42:44;;;;;;;3.10;0.90;;;0.90;99.90;;;;;;5014729;28;20050;-36
2021/12/03 01:45:13;;;;;;;7.93;1.80;;;1.00;99.90;;;;;;5016693;28;20292;-34
2021/12/03 01:47:44;;;;;;;7.20;1.20;;;0.90;99.90;;;;;;5004001;28;20045;-36
2021/12/03 01:50:11;;;;;;;6.70;0.98;;;1.00;99.90;;;;;;5016009;28;20107;-37
2021/12/03 01:52:37;;;;;;;4.70;1.63;;;0.90;99.90;;;;;;5014503;28;20132;-37
2021/12/03 01:55:08;;;;;;;6.60;1.30;;;1.00;99.90;;;;;;5016470;28;20139;-36
2021/12/03 01:57:34;;;;;;;6.10;0.70;;;1.00;99.90;;;;;;5005748;28;20046;-36
2021/12/03 02:00:00;;;;;;;5.93;1.37;;;1.00;99.90;;;;;;5016330;28;20293;-36
2021/12/03 02:02:28;;;;;;;4.70;1.00;;;1.00;99.90;;;;;;5015335;28;20049;-36
2021/12/03 02:04:57;;;;;;;5.03;1.13;;;1.00;99.90;;;;;;5015653;28;20057;-36
2021/12/03 02:07:23;;;;;;;7.23;1.20;;;1.00;99.90;;;;;;5005064;28;20049;-36
2021/12/03 02:09:48;;;;;;;10.00;1.37;;;1.00;99.90;;;;;;5028660;28;20053;-37
2021/12/03 02:12:14;;;;;;;6.27;1.30;;;1.00;99.90;;;;;;5014792;28;20140;-36
2021/12/03 02:14:40;;;;;;;7.07;1.10;;;1.00;99.90;;;;;;5014282;28;20114;-35
2021/12/03 02:17:06;;;;;;;8.77;0.93;;;1.00;99.90;;;;;;5004986;28;20058;-35
2021/12/03 02:19:33;;;;;;;5.07;1.57;;;1.00;99.90;;;;;;5013930;28;20038;-36
2021/12/03 02:21:59;;;;;;;6.33;1.20;;;1.00;99.90;;;;;;5021858;28;20120;-37
2021/12/03 02:24:24;;;;;;;6.67;1.00;;;1.00;99.90;;;;;;5015006;28;20113;-35
2021/12/03 02:26:50;;;;;;;5.57;1.07;;;1.00;99.90;;;;;;5003575;28;20092;-36
2021/12/03 02:29:16;;;;;;;4.00;0.80;;;1.10;99.90;;;;;;5021358;28;20037;-37
2021/12/03 02:31:42;;;;;;;8.03;1.00;;;1.00;99.90;;;;;;5013766;28;20045;-36
2021/12/03 02:34:08;;;;;;;4.90;1.00;;;1.00;99.90;;;;;;5014390;28;20420;-36
2021/12/03 02:36:33;;;;;;;7.13;1.00;;;1.00;99.90;;;;;;5003856;28;20512;-36
2021/12/03 02:38:59;;;;;;;7.17;1.60;;;1.00;99.90;;;;;;5014069;28;20037;-37
2021/12/03 02:41:25;;;;;;;5.60;1.10;;;1.00;99.90;;;;;;5013700;28;20507;-36
2021/12/03 02:43:52;;;;;;;6.07;1.00;;;1.10;99.90;;;;;;5018380;28;20051;-37
2021/12/03 02:46:18;;;;;;;3.17;0.90;;;1.00;99.90;;;;;;5008658;28;20049;-36
2021/12/03 02:48:44;;;;;;;6.37;1.37;;;1.10;99.90;;;;;;5019463;28;20052;-36
2021/12/03 02:51:11;;;;;;;7.40;1.07;;;1.00;99.90;;;;;;5018459;28;20050;-35
2021/12/03 02:53:37;;;;;;;2.63;0.90;;;1.00;99.90;;;;;;5019030;28;20445;-36
2021/12/03 02:56:05;;;;;;;6.87;1.07;;;1.10;99.90;;;;;;5018737;28;20517;-35
2021/12/03 02:58:32;;;;;;;5.20;1.00;;;1.00;99.90;;;;;;5015202;28;20136;-36
2021/12/03 03:00:58;;;;;;;55.73;22.13;;;1.00;99.90;;;;;;5023360;28;20050;-36
2021/12/03 03:03:24;;;;;;;47.77;21.43;;;1.00;99.90;;;;;;5022692;28;20050;-36
2021/12/03 03:05:57;;;;;;;21.60;9.00;;;1.00;99.90;;;;;;5022148;28;20092;-36
2021/12/03 03:08:24;;;;;;;12.00;4.67;;;1.10;99.90;;;;;;5009655;28;20041;-35
2021/12/03 03:10:51;;;;;;;11.00;2.83;;;1.00;99.90;;;;;;5020692;28;20559;-36
2021/12/03 03:13:17;;;;;;;6.57;2.37;;;1.10;99.90;;;;;;5019507;28;20037;-37
2021/12/03 03:15:43;;;;;;;6.40;1.90;;;1.10;99.90;;;;;;5020188;28;20080;-36
2021/12/03 03:18:21;;;;;;;7.83;3.13;;;1.00;99.90;;;;;;5011723;28;20041;-35
2021/12/03 03:20:48;;;;;;;7.80;2.13;;;1.10;99.90;;;;;;5024079;28;20077;-36
2021/12/03 03:23:15;;;;;;;19.37;4.53;;;1.00;99.90;;;;;;5024059;28;20083;-36
2021/12/03 03:25:41;;;;;;;6.47;2.23;;;1.10;99.90;;;;;;5020254;28;20312;-36
2021/12/03 03:28:09;;;;;;;9.93;2.33;;;1.10;99.90;;;;;;5009353;28;20077;-36
2021/12/03 03:30:35;;;;;;;5.93;2.07;;;1.10;99.90;;;;;;5024508;28;20562;-36
2021/12/03 03:33:02;;;;;;;8.57;2.37;;;1.10;99.90;;;;;;5021482;28;20053;-34
2021/12/03 03:35:28;;;;;;;5.10;2.33;;;1.10;99.90;;;;;;5021371;28;20113;-36
2021/12/03 03:37:54;;;;;;;5.93;2.00;;;1.10;99.90;;;;;;5009828;28;20080;-37
2021/12/03 03:40:20;;;;;;;7.00;2.87;;;1.10;99.90;;;;;;5021015;28;20030;-36
2021/12/03 03:42:46;;;;;;;11.07;3.03;;;1.10;99.90;;;;;;5018279;28;20160;-37
2021/12/03 03:45:15;;;;;;;9.73;2.90;;;1.10;99.90;;;;;;5018328;28;20413;-36
2021/12/03 03:47:41;;;;;;;7.00;3.50;;;1.10;99.90;;;;;;5008180;28;20284;-34
2021/12/03 03:50:08;;;;;;;9.90;3.20;;;1.10;99.90;;;;;;5019816;28;20215;-37
2021/12/03 03:52:35;;;;;;;9.23;3.40;;;1.10;99.90;;;;;;5019516;28;20477;-36
2021/12/03 03:55:01;;;;;;;11.47;3.20;;;1.10;99.90;;;;;;5016839;28;20139;-36
2021/12/03 03:57:27;;;;;;;9.47;3.10;;;1.10;99.90;;;;;;5013020;28;20393;-36
2021/12/03 03:59:54;;;;;;;8.57;3.30;;;1.10;99.90;;;;;;5019099;28;20157;-35
2021/12/03 04:02:20;;;;;;;8.60;3.80;;;1.20;99.90;;;;;;5018754;28;20081;-36
2021/12/03 04:04:45;;;;;;;9.93;5.23;;;1.10;99.90;;;;;;5019438;28;20139;-36
2021/12/03 04:07:11;;;;;;;14.73;6.20;;;1.20;99.90;;;;;;5016530;28;20817;-34
2021/12/03 04:09:37;;;;;;;15.67;7.23;;;1.20;99.90;;;;;;5016897;28;20084;-36
2021/12/03 04:12:03;;;;;;;14.07;9.13;;;1.20;99.90;;;;;;5024503;28;20058;-37
2021/12/03 04:14:28;;;;;;;23.30;11.37;;;1.20;99.90;;;;;;5016072;28;20141;-36
2021/12/03 04:16:54;;;;;;;24.20;11.67;;;1.30;99.90;;;;;;4999427;28;20066;-36
2021/12/03 04:19:20;;;;;;;23.13;13.80;;;1.30;99.90;;;;;;5013905;28;20044;-36
2021/12/03 04:21:46;;;;;;;26.27;15.73;;;1.30;99.90;;;;;;5016250;28;20048;-36
2021/12/03 04:24:12;;;;;;;26.27;15.70;;;1.30;99.90;;;;;;5017614;28;20515;-37
2021/12/03 04:26:37;;;;;;;27.20;17.00;;;1.30;99.90;;;;;;5006711;28;20034;-36
2021/12/03 04:29:04;;;;;;;28.07;17.87;;;1.30;99.90;;;;;;5024038;28;20050;-36
2021/12/03 04:31:29;;;;;;;26.10;17.83;;;1.40;99.90;;;;;;5015419;28;20048;-37
2021/12/03 04:33:56;;;;;;;28.50;18.77;;;1.30;99.90;;;;;;5018944;28;20049;-35
2021/12/03 04:36:22;;;;;;;30.60;19.40;;;1.30;99.90;;;;;;5010052;28;20058;-36
2021/12/03 04:38:48;;;;;;;30.07;20.17;;;1.40;99.90;;;;;;5022567;28;20049;-37
2021/12/03 04:41:14;;;;;;;30.73;20.47;;;1.30;99.90;;;;;;5021333;28;20501;-36
2021/12/03 04:43:40;;;;;;;32.90;21.33;;;1.30;99.90;;;;;;5023098;28;20057;-37
2021/12/03 04:46:06;;;;;;;36.00;22.60;;;1.30;99.90;;;;;;5022572;28;20049;-37
2021/12/03 04:48:32;;;;;;;39.00;24.03;;;1.30;99.90;;;;;;5013921;28;20038;-36
2021/12/03 04:50:58;;;;;;;35.53;22.70;;;1.30;99.90;;;;;;5019241;28;20106;-35
2021/12/03 04:53:24;;;;;;;35.27;23.20;;;1.30;99.90;;;;;;5018507;28;20535;-35
2021/12/03 04:55:51;;;;;;;36.50;25.00;;;1.30;99.90;;;;;;5033703;28;20050;-36
2021/12/03 04:58:17;;;;;;;31.50;21.80;;;1.30;99.90;;;;;;5011580;28;20037;-37
2021/12/03 05:00:50;;;;;;;34.00;21.67;;;1.30;99.90;;;;;;5019235;28;20052;-36
2021/12/03 05:03:15;;;;;;;31.87;20.97;;;1.30;99.90;;;;;;5016962;28;20087;-35
2021/12/03 05:05:55;;;;;;;34.67;21.93;;;1.40;99.90;;;;;;5005653;28;20669;-35
2021/12/03 05:08:21;;;;;;;32.20;21.57;;;1.40;99.90;;;;;;5006634;28;20046;-38
2021/12/03 05:10:47;;;;;;;33.83;21.73;;;1.30;99.90;;;;;;5017992;28;20496;-35
2021/12/03 05:13:16;;;;;;;33.77;20.53;;;1.40;99.90;;;;;;5021229;28;20045;-37
2021/12/03 05:15:43;;;;;;;28.07;19.80;;;1.40;99.90;;;;;;5019468;28;20501;-37
2021/12/03 05:18:12;;;;;;;29.17;21.13;;;1.40;99.90;;;;;;5009899;28;20072;-35
2021/12/03 05:20:38;;;;;;;28.53;19.97;;;1.40;99.90;;;;;;5019661;28;20386;-36
2021/12/03 05:23:04;;;;;;;32.53;19.90;;;1.40;99.90;;;;;;5018697;28;20049;-35
2021/12/03 05:25:30;;;;;;;30.53;19.60;;;1.40;99.90;;;;;;5018820;28;20115;-36
2021/12/03 05:27:56;;;;;;;31.93;19.50;;;1.40;99.90;;;;;;5007394;28;20056;-36
2021/12/03 05:30:23;;;;;;;27.53;18.57;;;1.40;99.90;;;;;;5019588;28;20046;-35
2021/12/03 05:32:49;;;;;;;26.67;18.80;;;1.40;99.90;;;;;;5014509;28;20046;-36
2021/12/03 05:35:15;;;;;;;29.03;17.93;;;1.40;99.90;;;;;;5016242;28;20251;-37
2021/12/03 05:37:42;;;;;;;29.60;19.43;;;1.40;99.90;;;;;;5008249;28;20048;-36
2021/12/03 05:40:10;;;;;;;28.73;18.50;;;1.50;99.90;;;;;;5015945;28;20124;-36
2021/12/03 05:42:37;;;;;;;26.60;18.53;;;1.40;99.90;;;;;;5016256;28;20468;-35
2021/12/03 05:45:05;;;;;;;26.27;18.83;;;1.50;99.90;;;;;;5015947;28;20060;-37
2021/12/03 05:47:30;;;;;;;34.10;17.97;;;1.40;99.90;;;;;;5004847;28;20413;-37
2021/12/03 05:49:56;;;;;;;26.80;17.10;;;1.50;99.90;;;;;;5014144;28;20050;-36
2021/12/03 05:52:22;;;;;;;27.67;17.10;;;1.40;99.90;;;;;;5014324;28;20049;-36
2021/12/03 05:54:48;;;;;;;24.97;17.30;;;1.50;99.90;;;;;;5014186;28;20061;-36
2021/12/03 05:57:13;;;;;;;23.70;16.63;;;1.40;99.90;;;;;;5003512;28;20095;-36
2021/12/03 05:59:39;;;;;;;27.97;18.37;;;1.40;99.90;;;;;;5013102;28;20046;-38
2021/12/03 06:02:05;;;;;;;23.10;16.97;;;1.40;99.90;;;;;;5021638;28;20053;-33
2021/12/03 06:04:31;;;;;;;24.80;17.10;;;1.40;99.90;;;;;;5014317;28;20320;-36
2021/12/03 06:06:56;;;;;;;26.97;18.33;;;1.40;99.90;;;;;;5002682;28;20065;-37
2021/12/03 06:09:23;;;;;;;24.97;17.83;;;1.40;99.90;;;;;;5014224;28;20084;-36
2021/12/03 06:11:48;;;;;;;27.07;17.00;;;1.40;99.90;;;;;;5015918;28;20056;-35
2021/12/03 06:14:14;;;;;;;24.17;16.87;;;1.40;99.90;;;;;;5013934;28;20489;-35
2021/12/03 06:16:40;;;;;;;21.57;16.90;;;1.40;99.90;;;;;;5000988;28;20046;-38
2021/12/03 06:19:06;;;;;;;25.67;17.67;;;1.40;99.90;;;;;;5004685;28;20165;-35
2021/12/03 06:21:31;;;;;;;27.00;17.73;;;1.40;99.90;;;;;;5011278;28;20081;-37
2021/12/03 06:23:57;;;;;;;25.17;18.10;;;1.40;99.90;;;;;;5013722;28;20050;-35
2021/12/03 06:26:23;;;;;;;25.87;17.80;;;1.40;99.90;;;;;;4994170;28;20084;-37
2021/12/03 06:28:48;;;;;;;32.00;18.47;;;1.40;99.90;;;;;;5020188;28;20092;-34
2021/12/03 06:31:14;;;;;;;25.87;18.03;;;1.50;99.90;;;;;;5018783;28;20119;-36
2021/12/03 06:33:41;;;;;;;29.70;18.43;;;1.50;99.90;;;;;;5015837;28;20129;-36
2021/12/03 06:36:06;;;;;;;28.53;19.33;;;1.50;99.90;;;;;;5016177;28;20049;-35
2021/12/03 06:38:33;;;;;;;33.67;20.53;;;1.50;99.90;;;;;;5013072;28;20049;-36
2021/12/03 06:40:59;;;;;;;29.77;20.40;;;1.50;99.90;;;;;;5019996;28;20054;-36
2021/12/03 06:43:25;;;;;;;29.20;20.43;;;1.50;99.90;;;;;;5017291;28;20041;-37
2021/12/03 06:45:51;;;;;;;32.40;20.70;;;1.60;99.90;;;;;;5017071;28;20037;-36
2021/12/03 06:48:17;;;;;;;31.47;20.67;;;1.60;99.90;;;;;;5005233;28;20068;-37
2021/12/03 06:50:44;;;;;;;34.10;21.00;;;1.60;99.90;;;;;;5014530;28;20041;-35
2021/12/03 06:53:11;;;;;;;28.97;19.80;;;1.60;99.90;;;;;;5016000;28;20060;-35
2021/12/03 06:55:45;;;;;;;26.20;19.73;;;1.60;99.90;;;;;;5015581;28;20116;-35
2021/12/03 06:58:12;;;;;;;31.43;20.60;;;1.60;99.90;;;;;;5007143;28;20050;-36
2021/12/03 07:00:38;;;;;;;30.20;19.40;;;1.60;99.90;;;;;;5015608;28;20134;-33
2021/12/03 07:03:05;;;;;;;30.67;20.93;;;1.60;99.90;;;;;;5016621;28;20474;-35
2021/12/03 07:05:31;;;;;;;35.63;19.97;;;1.60;99.90;;;;;;5019167;28;20126;-36
2021/12/03 07:07:57;;;;;;;31.03;19.87;;;1.60;99.90;;;;;;5007051;28;20497;-37
2021/12/03 07:10:22;;;;;;;27.00;19.03;;;1.70;99.90;;;;;;5019637;28;20063;-36
2021/12/03 07:12:49;;;;;;;26.57;18.03;;;1.70;99.90;;;;;;5015881;28;20338;-35
2021/12/03 07:15:15;;;;;;;28.43;17.80;;;1.70;99.90;;;;;;5017693;28;20125;-36
2021/12/03 07:17:41;;;;;;;26.40;16.93;;;1.80;99.90;;;;;;5006876;28;20045;-36
2021/12/03 07:20:08;;;;;;;28.60;17.37;;;1.80;99.90;;;;;;5014900;28;20464;-33
2021/12/03 07:22:34;;;;;;;26.50;16.83;;;1.80;99.90;;;;;;5015329;28;20117;-36
2021/12/03 07:25:00;;;;;;;26.17;16.33;;;1.80;99.90;;;;;;5014988;28;20460;-35
2021/12/03 07:27:26;;;;;;;27.30;15.47;;;1.80;99.90;;;;;;5005736;28;20075;-37
2021/12/03 07:29:52;;;;;;;22.83;14.33;;;1.90;99.90;;;;;;5014000;28;20046;-36
2021/12/03 07:32:20;;;;;;;21.40;12.53;;;1.90;99.90;;;;;;5014678;28;20052;-36
2021/12/03 07:34:46;;;;;;;25.50;12.53;;;1.90;99.90;;;;;;5013904;28;20085;-36
2021/12/03 07:37:13;;;;;;;21.00;11.23;;;1.90;99.90;;;;;;5005319;28;20140;-36
2021/12/03 07:39:39;;;;;;;22.73;10.60;;;2.00;99.90;;;;;;5020609;28;20046;-36
2021/12/03 07:42:05;;;;;;;19.93;9.90;;;2.00;99.90;;;;;;5014445;28;20156;-36
2021/12/03 07:44:31;;;;;;;25.03;10.10;;;2.00;99.90;;;;;;5017409;28;20180;-36
2021/12/03 07:46:57;;;;;;;19.73;9.57;;;2.10;99.90;;;;;;5005275;28;20081;-36
2021/12/03 07:49:24;;;;;;;17.30;9.00;;;2.10;99.90;;;;;;5014046;28;20523;-36
2021/12/03 07:51:50;;;;;;;15.40;8.87;;;2.10;99.90;;;;;;5015518;28;20092;-36
2021/12/03 07:54:17;;;;;;;22.80;8.70;;;2.10;99.90;;;;;;4998012;28;20179;-36
2021/12/03 07:56:43;;;;;;;17.40;8.67;;;2.20;99.90;;;;;;4990288;28;20104;-36
2021/12/03 07:59:09;;;;;;;17.37;8.00;;;2.20;99.90;;;;;;5012028;28;20075;-36
2021/12/03 08:01:35;;;;;;;14.73;7.80;;;2.20;99.90;;;;;;5015155;28;20819;-36
2021/12/03 08:04:00;;;;;;;20.80;7.77;;;2.30;99.90;;;;;;5021503;28;20073;-34
2021/12/03 08:06:26;;;;;;;13.23;6.80;;;2.30;99.90;;;;;;5002466;28;20943;-36
2021/12/03 08:08:52;;;;;;;15.23;6.60;;;2.30;99.90;;;;;;5011333;28;20082;-35
2021/12/03 08:11:17;;;;;;;15.47;6.63;;;2.30;99.90;;;;;;5019110;28;20223;-33
2021/12/03 08:13:43;;;;;;;14.37;6.40;;;2.40;99.90;;;;;;5010822;28;20072;-37
2021/12/03 08:16:10;;;;;;;13.30;6.27;;;2.40;99.90;;;;;;5003519;28;20056;-33
2021/12/03 08:18:35;;;;;;;13.00;6.60;;;2.50;99.90;;;;;;5012283;28;20069;-36
2021/12/03 08:21:03;;;;;;;12.27;6.37;;;2.40;99.90;;;;;;5014397;28;20076;-36
2021/12/03 08:23:29;;;;;;;13.67;6.47;;;2.50;99.90;;;;;;5013043;28;20092;-36
2021/12/03 08:25:55;;;;;;;15.70;5.47;;;2.50;99.90;;;;;;5017287;28;20047;-35
2021/12/03 08:28:22;;;;;;;11.17;6.23;;;2.50;99.90;;;;;;5006092;28;20045;-37
2021/12/03 08:30:47;;;;;;;11.87;5.57;;;2.50;99.90;;;;;;5016049;28;20448;-36
2021/12/03 08:33:13;;;;;;;15.77;5.90;;;2.60;99.90;;;;;;5014640;28;20133;-33
2021/12/03 08:35:39;;;;;;;15.27;5.30;;;2.60;99.90;;;;;;5039567;28;20076;-35
2021/12/03 08:38:05;;;;;;;15.43;5.60;;;2.60;99.90;;;;;;5004453;28;20080;-34
2021/12/03 08:40:31;;;;;;;13.87;6.00;;;2.60;99.90;;;;;;5014521;28;20108;-35
2021/12/03 08:42:57;;;;;;;11.37;5.73;;;2.60;99.90;;;;;;5015675;28;20054;-36
2021/12/03 08:45:22;;;;;;;17.00;6.20;;;2.60;99.90;;;;;;5019812;28;20120;-36
2021/12/03 08:47:52;;;;;;;12.03;5.87;;;2.70;99.90;;;;;;5021963;28;20132;-37
2021/12/03 08:50:28;;;;;;;17.30;6.30;;;2.70;99.90;;;;;;5019319;28;20120;-36
2021/12/03 08:55:28;;;;;;;13.97;6.03;;;2.70;99.90;;;;;;5003180;28;20054;-35
2021/12/03 08:57:54;;;;;;;17.73;6.00;;;2.80;99.90;;;;;;4995979;28;20052;-36
2021/12/03 09:00:20;;;;;;;13.17;6.50;;;2.80;99.90;;;;;;5021749;28;20041;-36
2021/12/03 09:02:47;;;;;;;13.57;5.70;;;2.80;99.90;;;;;;5017074;28;20357;-36
2021/12/03 09:05:13;;;;;;;14.23;6.43;;;2.80;99.90;;;;;;5016600;28;20481;-36
2021/12/03 09:07:39;;;;;;;14.97;6.77;;;2.80;99.90;;;;;;5007354;28;20507;-36
2021/12/03 09:10:10;;;;;;;18.73;7.17;;;2.90;99.90;;;;;;5014612;28;20081;-36
2021/12/03 09:12:36;;;;;;;12.87;4.93;;;2.90;99.90;;;;;;5018642;28;20045;-35
2021/12/03 09:15:05;;;;;;;13.27;7.47;;;2.90;99.90;;;;;;5013895;28;20403;-36
2021/12/03 09:17:45;;;;;;;17.00;6.77;;;2.90;99.90;;;;;;5006946;28;20049;-36
2021/12/03 09:23:04;;;;;;;17.07;7.63;;;2.90;99.90;;;;;;5015147;28;20626;-37
2021/12/03 09:25:36;;;;;;;19.43;8.23;;;3.00;99.90;;;;;;5018014;28;20049;-36
2021/12/03 09:28:05;;;;;;;22.65;9.02;;;3.00;99.90;;;;;;5006478;28;20148;-36
2021/12/03 09:30:36;;;;;;;26.47;9.37;;;3.10;99.90;;;;;;5015257;28;20523;-36
2021/12/03 09:33:07;;;;;;;;;;;3.10;99.90;;;;;;5032723;28;20115;-37
2021/12/03 09:35:38;;;;;;;19.25;9.57;;;3.10;99.90;;;;;;5013688;28;19941;-36
2021/12/03 09:38:03;;;;;;;27.07;10.00;;;3.10;99.90;;;;;;5005479;28;20417;-35
2021/12/03 09:40:30;;;;;;;20.60;9.43;;;3.10;99.90;;;;;;5016136;28;20099;-35
2021/12/03 09:42:56;;;;;;;23.33;10.10;;;3.20;99.90;;;;;;5007932;28;20042;-36
2021/12/03 09:45:22;;;;;;;24.67;10.80;;;3.20;99.90;;;;;;5011872;28;20060;-35
2021/12/03 09:47:48;;;;;;;27.50;10.73;;;3.30;99.90;;;;;;5005254;28;20061;-36
2021/12/03 09:50:14;;;;;;;24.17;12.17;;;3.30;99.90;;;;;;5017107;28;20390;-35
2021/12/03 09:55:17;;;;;;;26.13;12.60;;;3.30;99.90;;;;;;5029564;28;20468;-34
2021/12/03 10:03:38;;;;;;;22.50;11.93;;;3.40;99.90;;;;;;5014493;28;20180;-37
2021/12/03 10:13:55;;;;;;;22.70;10.90;;;3.50;99.90;;;;;;5017556;28;20037;-37
2021/12/03 10:18:52;;;;;;;23.90;10.43;;;3.50;99.90;;;;;;5019505;28;20042;-35
2021/12/03 10:24:42;;;;;;;28.73;10.57;;;3.60;99.90;;;;;;5015075;28;20054;-36
2021/12/03 10:30:59;;;;;;;21.83;9.57;;;3.60;99.90;;;;;;5022097;28;20054;-36
2021/12/03 10:39:51;;;;;;;23.90;8.40;;;3.60;99.90;;;;;;5011607;28;20437;-36
2021/12/03 10:42:47;;;;;;;24.80;9.10;;;3.70;99.90;;;;;;5014624;28;20101;-37
2021/12/03 10:48:26;;;;;;;23.47;8.00;;;3.70;99.90;;;;;;5007085;28;20050;-37
2021/12/03 10:51:14;;;;;;;17.93;7.30;;;3.70;99.90;;;;;;5013748;28;20088;-36
2021/12/03 10:53:50;;;;;;;24.60;7.10;;;3.70;99.90;;;;;;5012549;28;20066;-36
2021/12/03 11:43:21;;;;;;;12.40;5.40;;;3.60;99.90;;;;;;4999494;28;20241;-37
2021/12/03 11:55:48;;;;;;;11.83;5.67;;;3.60;99.90;;;;;;5013410;28;20611;-36
2021/12/03 11:58:53;;;;;;;12.83;5.27;;;3.50;99.90;;;;;;5004112;28;20490;-36
2021/12/03 12:52:44;;;;;;;22.57;6.87;;;3.50;99.90;;;;;;5001175;28;20054;-37
2021/12/03 13:39:37;;;;;;;19.60;6.70;;;3.60;99.90;;;;;;4990365;28;20064;-34
2021/12/03 14:01:04;;;;;;;16.53;6.07;;;3.80;99.90;;;;;;5010790;28;20092;-36
2021/12/03 14:09:14;;;;;;;15.30;5.93;;;3.80;99.90;;;;;;5007141;28;20430;-36
2021/12/03 14:15:30;;;;;;;12.07;5.30;;;3.80;99.90;;;;;;5012807;28;20099;-35
2021/12/03 14:41:42;;;;;;;10.63;5.57;;;3.90;99.90;;;;;;5019943;28;20409;-36
2021/12/03 14:51:59;;;;;;;14.07;5.67;;;3.90;99.90;;;;;;5012301;28;19964;-35
2021/12/03 15:00:17;;;;;;;15.93;5.70;;;4.00;99.90;;;;;;5010104;28;20143;-35
2021/12/03 15:02:57;;;;;;;10.70;5.57;;;4.00;99.90;;;;;;5011972;28;20825;-36
2021/12/03 15:05:39;;;;;;;13.07;5.53;;;4.00;99.90;;;;;;5014306;28;20131;-36
2021/12/03 15:08:06;;;;;;;;;;;4.00;99.90;;;;;;4993739;28;20049;-37
2021/12/03 15:11:01;;;;;;;14.03;5.60;;;4.00;99.90;;;;;;5004632;28;20389;-37
2021/12/03 15:17:21;;;;;;;13.03;6.40;;;4.00;99.90;;;;;;5000553;28;20073;-36
2021/12/03 15:27:22;;;;;;;12.27;6.47;;;4.00;99.90;;;;;;4999037;28;20045;-35
2021/12/03 16:04:12;;;;;;;17.27;9.87;;;4.10;99.90;;;;;;5010089;28;20140;-36
2021/12/03 16:07:00;;;;;;;15.73;10.30;;;4.10;99.90;;;;;;5003542;28;20045;-36
2021/12/03 16:12:01;;;;;;;14.10;10.70;;;4.10;99.90;;;;;;5012747;28;20058;-36
2021/12/03 16:17:30;;;;;;;16.57;10.77;;;4.10;99.90;;;;;;5006127;28;20579;-36
2021/12/03 16:20:21;;;;;;;16.10;10.93;;;4.20;99.90;;;;;;5015922;28;20103;-35
2021/12/03 16:50:23;;;;;;;15.97;12.37;;;4.20;99.90;;;;;;5011204;28;20158;-36
2021/12/03 16:52:47;;;;;;;13.20;10.90;;;4.20;99.90;;;;;;5011739;28;20041;-35
2021/12/03 16:55:14;;;;;;;13.60;11.70;;;4.20;99.90;;;;;;5012870;28;20494;-35
2021/12/03 16:57:41;;;;;;;16.57;12.20;;;4.30;99.90;;;;;;4997705;28;20041;-36
2021/12/03 17:00:20;;;;;;;15.50;12.10;;;4.30;99.90;;;;;;5008349;28;20041;-37
2021/12/03 17:03:09;;;;;;;16.40;12.27;;;4.20;99.90;;;;;;5023210;28;20052;-35
2021/12/03 17:11:30;;;;;;;14.52;11.88;;;4.30;99.90;;;;;;5011054;28;20148;-36
2021/12/03 17:48:39;;;;;;;15.30;12.70;;;4.20;99.90;;;;;;5018333;28;20037;-36
2021/12/03 17:56:19;;;;;;;17.03;13.83;;;4.30;99.90;;;;;;5001261;28;20049;-36
2021/12/03 17:58:53;;;;;;;16.33;13.67;;;4.30;99.90;;;;;;5013160;28;20055;-35
2021/12/03 18:01:33;;;;;;;16.27;13.20;;;4.30;99.90;;;;;;5012921;28;20611;-34
2021/12/03 18:04:07;;;;;;;17.63;13.63;;;4.30;99.90;;;;;;5020490;28;20400;-35
2021/12/03 18:53:42;;;;;;;25.83;19.33;;;4.50;99.90;;;;;;5021463;28;20405;-36
2021/12/03 18:56:19;;;;;;;26.27;19.63;;;4.50;99.90;;;;;;5016633;28;20475;-36
2021/12/03 18:58:50;;;;;;;24.70;19.30;;;4.50;99.90;;;;;;5022382;28;20591;-36
2021/12/03 19:01:16;;;;;;;;;;;4.50;99.90;;;;;;5021668;28;20086;-35
2021/12/03 19:06:41;;;;;;;25.03;19.13;;;4.50;99.90;;;;;;5008859;28;20480;-34
2021/12/03 19:09:11;;;;;;;27.27;21.00;;;4.50;99.90;;;;;;5021724;28;20053;-32
2021/12/03 19:11:41;;;;;;;27.30;20.73;;;4.50;99.90;;;;;;5024230;28;20030;-36
2021/12/03 19:14:07;;;;;;;29.93;21.73;;;4.60;99.90;;;;;;5023158;28;20075;-35
2021/12/03 19:16:34;;;;;;;26.77;20.47;;;4.60;99.90;;;;;;5010710;28;20478;-36
2021/12/03 19:19:03;;;;;;;27.37;21.07;;;4.60;99.90;;;;;;5023033;28;20045;-35
2021/12/03 19:21:32;;;;;;;27.93;20.97;;;4.60;99.90;;;;;;5023135;28;20064;-36
2021/12/03 19:24:01;;;;;;;29.03;22.57;;;4.60;99.90;;;;;;5002921;28;20042;-36
2021/12/03 19:26:28;;;;;;;30.67;23.47;;;4.60;99.90;;;;;;4993886;28;21126;-36
2021/12/03 19:28:56;;;;;;;29.27;22.40;;;4.60;99.90;;;;;;5021177;28;20611;-34
2021/12/03 19:31:24;;;;;;;31.37;23.23;;;4.60;99.90;;;;;;5023620;28;20425;-37
2021/12/03 19:33:50;;;;;;;30.43;23.30;;;4.60;99.90;;;;;;5021400;28;20452;-35
2021/12/03 19:36:22;;;;;;;31.30;23.50;;;4.70;99.90;;;;;;5009790;28;20472;-36
2021/12/03 19:38:49;;;;;;;33.17;24.55;;;4.70;99.90;;;;;;5024409;28;20409;-36
2021/12/03 19:41:26;;;;;;;32.33;23.53;;;4.70;99.90;;;;;;5025994;28;20045;-36
2021/12/03 19:43:54;;;;;;;33.47;25.20;;;4.70;99.90;;;;;;5024607;28;20057;-36
2021/12/03 19:46:26;;;;;;;36.97;26.03;;;4.70;99.90;;;;;;5000403;28;20130;-36
2021/12/03 19:51:26;;;;;;;40.10;28.95;;;4.70;99.90;;;;;;5025122;28;20370;-37
2021/12/03 19:53:59;;;;;;;39.47;27.80;;;4.70;99.90;;;;;;5026342;28;20157;-33
2021/12/03 19:56:26;;;;;;;38.87;28.37;;;4.70;99.90;;;;;;5015176;28;20586;-36
2021/12/03 19:58:52;;;;;;;41.40;29.23;;;4.70;99.90;;;;;;5011182;28;20138;-35
2021/12/03 20:01:19;;;;;;;43.73;30.70;;;4.70;99.90;;;;;;5038818;28;20052;-33
2021/12/03 20:03:46;;;;;;;43.00;30.70;;;4.70;99.90;;;;;;5020295;28;20124;-36
2021/12/03 20:06:12;;;;;;;47.93;32.90;;;4.70;99.90;;;;;;5019078;28;20045;-36